createdAt,value
2018-06-25T00:01:27.684Z,5.47
2018-06-25T00:03:55.952Z,5.55
2018-06-25T00:06:24.145Z,5.40
2018-06-25T00:08:52.326Z,5.60
2018-06-25T00:11:20.497Z,4.97
2018-06-25T00:13:48.674Z,5.67
2018-06-25T00:16:16.841Z,7.60
2018-06-25T00:18:45.026Z,5.97
2018-06-25T00:21:12.952Z,6.20
2018-06-25T00:23:41.141Z,4.75
2018-06-25T00:26:09.298Z,5.33
2018-06-25T00:28:37.554Z,5.33
2018-06-25T00:31:05.746Z,5.62
2018-06-25T00:33:33.941Z,7.35
2018-06-25T00:36:02.125Z,5.50
2018-06-25T00:38:30.314Z,5.42
2018-06-25T00:40:58.518Z,5.20
2018-06-25T00:43:26.681Z,5.42
2018-06-25T00:45:54.848Z,5.15
2018-06-25T00:48:23.014Z,5.87
2018-06-25T00:50:51.257Z,4.83
2018-06-25T00:53:19.390Z,8.38
2018-06-25T00:55:47.566Z,5.50
2018-06-25T00:58:15.725Z,6.03
2018-06-25T01:00:43.925Z,6.47
2018-06-25T01:03:12.088Z,5.85
2018-06-25T01:05:40.261Z,6.62
2018-06-25T01:08:08.422Z,8.45
2018-06-25T01:10:36.613Z,5.37
2018-06-25T01:13:04.793Z,7.60
2018-06-25T01:15:32.974Z,6.75
2018-06-25T01:18:01.142Z,7.30
2018-06-25T01:20:29.325Z,8.40
2018-06-25T01:22:57.499Z,7.58
2018-06-25T01:25:25.702Z,8.93
2018-06-25T01:27:53.874Z,9.78
2018-06-25T01:30:22.092Z,7.85
2018-06-25T01:32:50.330Z,6.10
2018-06-25T01:35:18.498Z,7.37
2018-06-25T01:37:46.686Z,7.25
2018-06-25T01:40:14.874Z,8.50
2018-06-25T01:42:43.065Z,8.88
2018-06-25T01:45:11.245Z,9.03
2018-06-25T01:47:39.433Z,8.70
2018-06-25T01:50:07.615Z,11.88
2018-06-25T01:52:35.793Z,10.03
2018-06-25T01:55:03.977Z,12.60
2018-06-25T01:57:32.186Z,10.88
2018-06-25T02:00:00.362Z,9.25
2018-06-25T02:02:28.526Z,9.33
2018-06-25T02:04:56.774Z,12.37
2018-06-25T02:07:24.962Z,11.75
2018-06-25T02:09:53.138Z,13.62
2018-06-25T02:12:21.321Z,12.73
2018-06-25T02:14:49.489Z,11.55
2018-06-25T02:17:17.656Z,9.53
2018-06-25T02:19:45.845Z,9.85
2018-06-25T02:22:14.005Z,12.13
2018-06-25T02:24:42.229Z,10.78
2018-06-25T02:27:10.399Z,10.48
2018-06-25T02:29:38.551Z,14.40
2018-06-25T02:32:06.734Z,10.65
2018-06-25T02:34:34.889Z,12.85
2018-06-25T02:37:03.085Z,13.43
2018-06-25T02:39:31.249Z,9.33
2018-06-25T02:41:59.425Z,10.23
2018-06-25T02:44:27.606Z,10.85
2018-06-25T02:46:55.796Z,9.35
2018-06-25T02:49:23.994Z,8.90
2018-06-25T02:51:52.165Z,12.78
2018-06-25T02:54:20.382Z,13.32
2018-06-25T02:56:48.586Z,11.88
2018-06-25T02:59:16.824Z,9.80
2018-06-25T03:01:44.929Z,12.03
2018-06-25T03:04:13.097Z,11.63
2018-06-25T03:06:41.263Z,10.35
2018-06-25T03:09:10.414Z,8.53
2018-06-25T03:11:38.613Z,11.97
2018-06-25T03:14:06.913Z,12.13
2018-06-25T03:16:35.366Z,12.63
2018-06-25T03:19:03.533Z,11.97
2018-06-25T03:21:31.705Z,10.23
2018-06-25T03:23:59.882Z,12.20
2018-06-25T03:26:28.049Z,11.63
2018-06-25T03:28:56.254Z,14.20
2018-06-25T03:31:24.413Z,11.22
2018-06-25T03:33:52.597Z,14.47
2018-06-25T03:36:20.770Z,11.33
2018-06-25T03:38:48.961Z,13.65
2018-06-25T03:41:17.129Z,14.93
2018-06-25T03:43:45.286Z,13.40
2018-06-25T03:46:13.237Z,10.95
2018-06-25T03:48:41.402Z,12.65
2018-06-25T03:51:09.601Z,12.10
2018-06-25T03:53:37.525Z,12.07
2018-06-25T03:56:05.689Z,13.48
2018-06-25T03:58:33.844Z,12.28
2018-06-25T04:01:02.088Z,13.62
2018-06-25T04:03:30.216Z,12.55
2018-06-25T04:05:58.384Z,13.03
2018-06-25T04:08:26.561Z,11.80
2018-06-25T04:10:54.723Z,12.98
2018-06-25T04:13:22.905Z,15.15
2018-06-25T04:15:51.068Z,15.55
2018-06-25T04:18:19.260Z,12.23
2018-06-25T04:20:47.441Z,16.17
2018-06-25T04:23:15.603Z,15.55
2018-06-25T04:25:43.773Z,17.35
2018-06-25T04:28:11.944Z,16.73
2018-06-25T04:30:40.141Z,15.58
2018-06-25T04:33:08.279Z,17.98
2018-06-25T04:35:36.473Z,16.97
2018-06-25T04:38:04.637Z,15.83
2018-06-25T04:40:32.801Z,14.93
2018-06-25T04:43:01.077Z,17.10
2018-06-25T04:45:29.235Z,20.30
2018-06-25T04:47:57.428Z,18.35
2018-06-25T04:50:25.613Z,14.38
2018-06-25T04:52:53.847Z,18.98
2018-06-25T04:55:22.025Z,17.40
2018-06-25T04:57:50.228Z,18.40
2018-06-25T05:00:18.374Z,20.57
2018-06-25T05:02:46.546Z,19.87
2018-06-25T05:05:14.698Z,17.80
2018-06-25T05:07:42.898Z,18.48
2018-06-25T05:10:11.066Z,18.55
2018-06-25T05:12:39.241Z,20.20
2018-06-25T05:15:07.421Z,20.85
2018-06-25T05:17:35.579Z,22.13
2018-06-25T05:20:03.762Z,18.07
2018-06-25T05:22:31.925Z,21.93
2018-06-25T05:25:00.124Z,21.00
2018-06-25T05:27:28.304Z,20.52
2018-06-25T05:29:56.449Z,19.15
2018-06-25T05:32:24.625Z,20.97
2018-06-25T05:34:52.785Z,19.07
2018-06-25T05:37:20.958Z,17.10
2018-06-25T05:39:49.111Z,18.67
2018-06-25T05:42:21.114Z,19.60
2018-06-25T05:44:50.102Z,21.90
2018-06-25T05:47:18.436Z,21.75
2018-06-25T05:49:46.730Z,16.90
2018-06-25T05:52:14.893Z,25.35
2018-06-25T05:54:43.066Z,20.97
2018-06-25T05:57:11.773Z,19.62
2018-06-25T05:59:40.051Z,18.32
2018-06-25T06:02:08.217Z,18.30
2018-06-25T06:04:36.450Z,21.07
2018-06-25T06:07:04.726Z,18.15
2018-06-25T06:09:32.910Z,17.90
2018-06-25T06:12:01.121Z,19.37
2018-06-25T06:14:29.294Z,17.80
2018-06-25T06:16:57.505Z,23.22
2018-06-25T06:19:25.657Z,15.32
2018-06-25T06:21:53.826Z,18.80
2018-06-25T06:24:22.270Z,18.12
2018-06-25T06:26:50.410Z,19.80
2018-06-25T06:29:18.645Z,18.37
2018-06-25T06:31:46.827Z,14.63
2018-06-25T06:34:14.986Z,18.85
2018-06-25T06:36:43.133Z,18.32
2018-06-25T06:39:14.278Z,13.93
2018-06-25T06:41:43.310Z,18.85
2018-06-25T06:44:11.268Z,17.37
2018-06-25T06:46:39.436Z,16.87
2018-06-25T06:49:07.609Z,14.85
2018-06-25T06:51:35.816Z,18.32
2018-06-25T06:54:04.202Z,21.55
2018-06-25T06:56:32.482Z,17.90
2018-06-25T06:59:00.641Z,19.15
2018-06-25T07:01:28.831Z,15.95
2018-06-25T07:03:57.021Z,12.60
2018-06-25T07:06:25.190Z,13.75
2018-06-25T07:08:53.350Z,13.05
2018-06-25T07:11:21.533Z,12.15
2018-06-25T07:13:49.725Z,17.15
2018-06-25T07:16:17.948Z,16.32
2018-06-25T07:18:46.125Z,13.05
2018-06-25T07:21:14.314Z,13.00
2018-06-25T07:23:42.977Z,15.88
2018-06-25T07:26:11.158Z,10.90
2018-06-25T07:28:39.318Z,11.40
2018-06-25T07:31:07.535Z,11.57
2018-06-25T07:33:35.705Z,13.00
2018-06-25T07:36:03.889Z,12.70
2018-06-25T07:38:32.037Z,10.40
2018-06-25T07:41:08.280Z,14.38
2018-06-25T07:43:36.477Z,11.95
2018-06-25T07:46:04.706Z,14.45
2018-06-25T07:48:33.098Z,13.62
2018-06-25T07:51:01.319Z,12.73
2018-06-25T07:53:29.698Z,12.15
2018-06-25T07:55:57.694Z,21.33
2018-06-25T07:58:26.097Z,16.97
2018-06-25T08:00:54.282Z,13.70
2018-06-25T08:03:22.465Z,18.85
2018-06-25T08:05:50.629Z,13.75
2018-06-25T08:08:18.815Z,15.72
2018-06-25T08:10:46.745Z,14.47
2018-06-25T08:13:15.011Z,13.32
2018-06-25T08:15:43.201Z,13.48
2018-06-25T08:18:11.370Z,14.53
2018-06-25T08:20:39.638Z,10.25
2018-06-25T08:23:07.895Z,17.30
2018-06-25T08:25:36.058Z,13.75
2018-06-25T08:28:04.254Z,14.13
2018-06-25T08:30:32.441Z,17.35
2018-06-25T08:33:00.601Z,15.30
2018-06-25T08:35:28.777Z,10.93
2018-06-25T08:37:56.950Z,10.70
2018-06-25T08:40:25.121Z,15.18
2018-06-25T08:42:53.293Z,12.10
2018-06-25T08:45:21.494Z,12.25
2018-06-25T08:47:49.669Z,11.10
2018-06-25T08:50:17.842Z,9.40
2018-06-25T08:52:46.006Z,9.43
2018-06-25T08:55:14.170Z,11.18
2018-06-25T08:57:42.345Z,14.15
2018-06-25T09:00:10.505Z,10.40
2018-06-25T09:02:38.685Z,12.25
2018-06-25T09:05:06.918Z,7.97
2018-06-25T09:07:35.042Z,8.95
2018-06-25T09:10:03.217Z,15.20
2018-06-25T09:12:31.413Z,8.75
2018-06-25T09:14:59.582Z,11.15
2018-06-25T09:17:27.752Z,8.43
2018-06-25T09:19:55.915Z,9.60
2018-06-25T09:22:24.080Z,10.95
2018-06-25T09:24:52.312Z,16.23
2018-06-25T09:27:20.469Z,11.08
2018-06-25T09:29:48.639Z,9.48
2018-06-25T09:32:16.814Z,10.08
2018-06-25T09:34:48.773Z,11.33
2018-06-25T09:37:17.699Z,13.68
2018-06-25T09:39:45.912Z,6.15
2018-06-25T09:42:14.091Z,13.13
2018-06-25T09:44:42.294Z,7.87
2018-06-25T09:47:10.762Z,9.05
2018-06-25T09:49:38.926Z,7.17
2018-06-25T09:52:07.104Z,4.67
2018-06-25T09:54:35.284Z,7.53
2018-06-25T09:57:03.486Z,8.88
2018-06-25T09:59:31.670Z,6.83
2018-06-25T10:01:59.836Z,7.05
2018-06-25T10:04:28.021Z,10.23
2018-06-25T10:06:56.198Z,8.20
2018-06-25T10:09:24.372Z,7.33
2018-06-25T10:11:52.562Z,7.35
2018-06-25T10:14:20.743Z,10.93
2018-06-25T10:16:48.915Z,9.95
2018-06-25T10:19:17.115Z,6.55
2018-06-25T10:21:45.281Z,5.03
2018-06-25T10:24:13.537Z,7.10
2018-06-25T10:26:41.722Z,7.37
2018-06-25T10:29:09.918Z,6.28
2018-06-25T10:31:38.097Z,10.20
2018-06-25T10:34:06.265Z,6.45
2018-06-25T10:36:34.485Z,7.90
2018-06-25T10:39:02.634Z,5.95
2018-06-25T10:41:30.801Z,5.12
2018-06-25T10:43:58.990Z,7.30
2018-06-25T10:46:27.186Z,4.05
2018-06-25T10:48:55.361Z,10.60
2018-06-25T10:51:23.577Z,8.05
2018-06-25T10:53:51.745Z,7.97
2018-06-25T10:56:19.908Z,5.05
2018-06-25T10:58:48.065Z,8.20
2018-06-25T11:01:16.337Z,6.80
2018-06-25T11:03:44.521Z,8.95
2018-06-25T11:06:12.727Z,4.58
2018-06-25T11:08:41.050Z,6.28
2018-06-25T11:11:09.554Z,6.62
2018-06-25T11:13:37.825Z,5.35
2018-06-25T11:16:06.350Z,5.50
2018-06-25T11:18:34.522Z,5.50
2018-06-25T11:21:03.277Z,5.97
2018-06-25T11:23:31.437Z,8.33
2018-06-25T11:25:59.622Z,6.78
2018-06-25T11:28:27.797Z,6.90
2018-06-25T11:30:55.969Z,6.53
2018-06-25T11:33:24.133Z,8.80
2018-06-25T11:35:52.305Z,4.70
2018-06-25T11:38:20.474Z,6.28
2018-06-25T11:40:48.658Z,8.00
2018-06-25T11:43:16.850Z,10.00
2018-06-25T11:45:45.054Z,7.60
2018-06-25T11:48:13.394Z,4.95
2018-06-25T11:50:41.553Z,4.45
2018-06-25T11:53:09.750Z,7.42
2018-06-25T11:55:37.917Z,8.28
2018-06-25T11:58:06.110Z,11.53
2018-06-25T12:00:34.335Z,7.12
2018-06-25T12:03:02.647Z,8.30
2018-06-25T12:05:30.710Z,5.80
2018-06-25T12:07:58.910Z,5.85
2018-06-25T12:10:27.114Z,4.03
2018-06-25T12:12:55.246Z,10.98
2018-06-25T12:15:23.429Z,6.70
2018-06-25T12:17:51.577Z,6.33
2018-06-25T12:20:19.775Z,5.17
2018-06-25T12:22:47.935Z,5.53
2018-06-25T12:25:16.114Z,5.47
2018-06-25T12:27:44.359Z,8.38
2018-06-25T12:30:12.460Z,8.43
2018-06-25T12:32:40.634Z,6.03
2018-06-25T12:35:08.832Z,6.25
2018-06-25T12:37:37.035Z,4.83
2018-06-25T12:40:05.221Z,5.35
2018-06-25T12:42:33.377Z,4.05
2018-06-25T12:45:01.580Z,3.02
2018-06-25T12:47:29.728Z,6.42
2018-06-25T12:49:57.927Z,4.47
2018-06-25T12:52:26.109Z,6.80
2018-06-25T12:54:54.285Z,7.25
2018-06-25T12:57:22.510Z,5.45
2018-06-25T12:59:50.678Z,6.37
2018-06-25T13:02:18.857Z,6.97
2018-06-25T13:04:47.046Z,5.42
2018-06-25T13:07:15.374Z,5.65
2018-06-25T13:09:43.534Z,3.92
2018-06-25T13:12:11.718Z,4.55
2018-06-25T13:14:39.888Z,8.60
2018-06-25T13:17:08.065Z,6.55
2018-06-25T13:19:36.233Z,4.45
2018-06-25T13:22:04.517Z,5.62
2018-06-25T13:24:32.742Z,6.78
2018-06-25T13:27:00.977Z,4.40
2018-06-25T13:29:29.128Z,4.15
2018-06-25T13:31:57.322Z,6.78
2018-06-25T13:34:25.489Z,10.35
2018-06-25T13:36:53.673Z,3.72
2018-06-25T13:39:21.889Z,8.63
2018-06-25T13:41:50.076Z,4.90
2018-06-25T13:44:18.283Z,4.28
2018-06-25T13:46:46.418Z,5.30
2018-06-25T13:49:15.787Z,8.45
2018-06-25T13:51:43.982Z,5.30
2018-06-25T13:54:12.162Z,4.80
2018-06-25T13:56:40.374Z,4.50
2018-06-25T13:59:08.598Z,6.60
2018-06-25T14:01:36.921Z,4.92
2018-06-25T14:04:05.433Z,5.20
2018-06-25T14:06:33.586Z,7.28
2018-06-25T14:09:02.442Z,4.53
2018-06-25T14:11:30.625Z,7.08
2018-06-25T14:13:58.803Z,4.05
2018-06-25T14:16:27.031Z,3.95
2018-06-25T14:18:56.172Z,3.70
2018-06-25T14:21:24.333Z,6.25
2018-06-25T14:23:58.238Z,3.20
2018-06-25T14:26:30.633Z,7.55
2018-06-25T14:28:58.881Z,7.22
2018-06-25T14:31:28.609Z,2.50
2018-06-25T14:34:02.776Z,5.53
2018-06-25T14:36:30.969Z,3.20
2018-06-25T14:38:59.147Z,4.35
2018-06-25T14:41:27.338Z,3.45
2018-06-25T14:43:55.505Z,5.95
2018-06-25T14:46:23.682Z,6.10
2018-06-25T14:48:51.888Z,4.50
2018-06-25T14:51:20.121Z,3.12
2018-06-25T14:53:48.309Z,3.90
2018-06-25T14:56:16.502Z,4.80
2018-06-25T14:58:44.714Z,6.72
2018-06-25T15:01:12.937Z,5.33
2018-06-25T15:03:41.093Z,2.70
2018-06-25T15:06:09.290Z,4.45
2018-06-25T15:08:37.455Z,4.97
2018-06-25T15:11:05.900Z,5.80
2018-06-25T15:13:34.090Z,5.83
2018-06-25T15:16:02.278Z,7.65
2018-06-25T15:18:30.448Z,6.28
2018-06-25T15:20:58.650Z,4.10
2018-06-25T15:23:26.801Z,4.72
2018-06-25T15:25:55.043Z,3.27
2018-06-25T15:28:23.178Z,5.03
2018-06-25T15:30:51.353Z,2.98
2018-06-25T15:33:19.533Z,3.70
2018-06-25T15:35:47.715Z,6.85
2018-06-25T15:38:15.689Z,4.35
2018-06-25T15:40:43.943Z,4.33
2018-06-25T15:43:12.098Z,3.98
2018-06-25T15:45:40.282Z,5.60
2018-06-25T15:48:08.496Z,6.15
2018-06-25T15:50:36.630Z,5.50
2018-06-25T15:53:04.810Z,3.42
2018-06-25T15:55:32.998Z,2.83
2018-06-25T15:58:01.242Z,6.78
2018-06-25T16:00:29.414Z,6.90
2018-06-25T16:02:57.577Z,3.25
2018-06-25T16:05:25.750Z,4.50
2018-06-25T16:07:53.926Z,5.03
2018-06-25T16:10:22.145Z,6.35
2018-06-25T16:12:50.342Z,4.42
2018-06-25T16:15:18.514Z,4.08
2018-06-25T16:17:46.690Z,5.75
2018-06-25T16:20:15.018Z,4.95
2018-06-25T16:22:43.199Z,5.12
2018-06-25T16:25:11.355Z,5.35
2018-06-25T16:27:39.526Z,8.38
2018-06-25T16:30:07.750Z,7.55
2018-06-25T16:32:35.965Z,4.22
2018-06-25T16:35:04.126Z,4.67
2018-06-25T16:37:32.470Z,7.65
2018-06-25T16:40:00.634Z,5.10
2018-06-25T16:42:28.809Z,3.75
2018-06-25T16:44:56.958Z,4.78
2018-06-25T16:47:25.175Z,7.35
2018-06-25T16:49:53.314Z,6.75
2018-06-25T16:52:21.580Z,3.90
2018-06-25T16:54:49.755Z,4.67
2018-06-25T16:57:17.970Z,5.50
2018-06-25T16:59:46.297Z,5.92
2018-06-25T17:02:14.421Z,4.55
2018-06-25T17:04:42.598Z,4.20
2018-06-25T17:07:10.826Z,7.85
2018-06-25T17:09:39.006Z,6.70
2018-06-25T17:12:07.191Z,4.67
2018-06-25T17:14:35.365Z,5.55
2018-06-25T17:17:03.526Z,4.70
2018-06-25T17:19:31.694Z,6.15
2018-06-25T17:21:59.924Z,4.28
2018-06-25T17:24:28.046Z,3.98
2018-06-25T17:26:56.336Z,6.65
2018-06-25T17:29:24.488Z,5.97
2018-06-25T17:31:52.649Z,5.92
2018-06-25T17:34:20.842Z,5.70
2018-06-25T17:36:49.010Z,4.35
2018-06-25T17:39:17.255Z,4.72
2018-06-25T17:41:45.408Z,5.97
2018-06-25T17:44:13.585Z,4.72
2018-06-25T17:46:41.757Z,4.37
2018-06-25T17:49:09.919Z,5.60
2018-06-25T17:51:38.118Z,6.80
2018-06-25T17:54:06.389Z,7.92
2018-06-25T17:56:34.546Z,3.40
2018-06-25T17:59:02.722Z,4.03
2018-06-25T18:01:30.891Z,5.00
2018-06-25T18:03:59.057Z,7.72
2018-06-25T18:06:27.246Z,4.72
2018-06-25T18:08:55.422Z,7.85
2018-06-25T18:11:23.748Z,4.67
2018-06-25T18:13:51.971Z,4.70
2018-06-25T18:16:19.913Z,5.45
2018-06-25T18:18:48.107Z,6.60
2018-06-25T18:21:16.355Z,3.62
2018-06-25T18:23:44.513Z,7.17
2018-06-25T18:26:12.700Z,4.17
2018-06-25T18:28:40.904Z,5.97
2018-06-25T18:31:09.083Z,6.53
2018-06-25T18:33:37.315Z,5.92
2018-06-25T18:36:05.495Z,6.62
2018-06-25T18:38:33.666Z,4.97
2018-06-25T18:41:01.845Z,5.90
2018-06-25T18:43:30.054Z,5.00
2018-06-25T18:45:58.233Z,5.50
2018-06-25T18:48:26.437Z,7.03
2018-06-25T18:50:54.634Z,6.72
2018-06-25T18:53:22.811Z,7.08
2018-06-25T18:55:50.992Z,11.78
2018-06-25T18:58:19.170Z,5.30
2018-06-25T19:00:47.356Z,5.28
2018-06-25T19:03:15.502Z,6.10
2018-06-25T19:05:43.704Z,6.30
2018-06-25T19:08:11.850Z,6.35
2018-06-25T19:10:40.130Z,4.78
2018-06-25T19:13:08.320Z,5.45
2018-06-25T19:15:36.481Z,6.00
2018-06-25T19:18:04.898Z,6.65
2018-06-25T19:20:33.310Z,8.18
2018-06-25T19:23:02.018Z,12.30
2018-06-25T19:25:30.174Z,7.97
2018-06-25T19:27:58.370Z,5.37
2018-06-25T19:30:26.537Z,6.60
2018-06-25T19:32:54.712Z,9.35
2018-06-25T19:35:22.878Z,9.68
2018-06-25T19:37:51.125Z,8.23
2018-06-25T19:40:19.324Z,6.87
2018-06-25T19:42:47.454Z,9.40
2018-06-25T19:45:15.632Z,7.35
2018-06-25T19:47:43.820Z,6.10
2018-06-25T19:50:11.973Z,8.75
2018-06-25T19:52:40.251Z,8.73
2018-06-25T19:55:08.424Z,6.00
2018-06-25T19:57:36.610Z,8.45
2018-06-25T20:00:04.938Z,5.85
2018-06-25T20:02:33.100Z,9.05
2018-06-25T20:05:01.261Z,8.63
2018-06-25T20:07:29.425Z,9.13
2018-06-25T20:09:57.589Z,10.10
2018-06-25T20:12:26.143Z,8.88
2018-06-25T20:14:54.302Z,10.38
2018-06-25T20:17:22.486Z,8.38
2018-06-25T20:19:50.678Z,8.80
2018-06-25T20:22:18.908Z,9.60
2018-06-25T20:24:46.975Z,10.65
2018-06-25T20:27:15.209Z,8.35
2018-06-25T20:29:43.394Z,6.17
2018-06-25T20:32:11.600Z,11.25
2018-06-25T20:34:39.782Z,9.15
2018-06-25T20:37:07.958Z,10.43
2018-06-25T20:39:36.135Z,7.45
2018-06-25T20:42:04.289Z,10.75
2018-06-25T20:44:32.470Z,10.13
2018-06-25T20:47:00.691Z,5.90
2018-06-25T20:49:28.818Z,11.95
2018-06-25T20:51:57.006Z,9.23
2018-06-25T20:54:25.177Z,8.93
2018-06-25T20:56:53.399Z,7.90
2018-06-25T20:59:21.577Z,10.23
2018-06-25T21:01:49.782Z,9.48
2018-06-25T21:04:17.967Z,9.18
2018-06-25T21:06:46.141Z,10.40
2018-06-25T21:09:14.333Z,7.17
2018-06-25T21:11:42.909Z,9.38
2018-06-25T21:14:11.098Z,9.68
2018-06-25T21:16:39.314Z,11.60
2018-06-25T21:19:07.501Z,9.70
2018-06-25T21:21:35.689Z,10.70
2018-06-25T21:24:03.923Z,9.98
2018-06-25T21:26:32.094Z,9.13
2018-06-25T21:29:00.294Z,13.03
2018-06-25T21:31:28.477Z,11.38
2018-06-25T21:33:56.654Z,9.48
2018-06-25T21:36:24.834Z,8.48
2018-06-25T21:38:53.001Z,8.85
2018-06-25T21:41:21.208Z,12.50
2018-06-25T21:43:49.380Z,11.88
2018-06-25T21:46:17.586Z,9.43
2018-06-25T21:48:45.763Z,10.55
2018-06-25T21:51:13.981Z,11.60
2018-06-25T21:53:42.158Z,10.85
2018-06-25T21:56:10.342Z,9.40
2018-06-25T21:58:38.526Z,10.58
2018-06-25T22:01:06.753Z,9.90
2018-06-25T22:03:34.980Z,13.13
2018-06-25T22:06:03.179Z,8.95
2018-06-25T22:08:31.354Z,10.03
2018-06-25T22:10:59.537Z,12.23
2018-06-25T22:13:27.714Z,11.08
2018-06-25T22:15:55.889Z,10.50
2018-06-25T22:18:24.038Z,10.35
2018-06-25T22:20:52.251Z,10.55
2018-06-25T22:23:20.413Z,11.08
2018-06-25T22:25:48.586Z,9.50
2018-06-25T22:28:16.742Z,14.60
2018-06-25T22:30:44.919Z,10.00
2018-06-25T22:33:13.077Z,11.55
2018-06-25T22:35:41.394Z,12.43
2018-06-25T22:38:09.554Z,9.90
2018-06-25T22:40:37.726Z,12.10
2018-06-25T22:43:05.903Z,10.85
2018-06-25T22:45:34.060Z,13.20
2018-06-25T22:48:02.249Z,11.53
2018-06-25T22:50:30.421Z,11.95
2018-06-25T22:52:58.629Z,11.43
2018-06-25T22:55:34.389Z,9.98
2018-06-25T22:58:02.646Z,11.60
2018-06-25T23:00:31.350Z,8.68
2018-06-25T23:02:59.542Z,11.10
2018-06-25T23:05:27.787Z,8.55
2018-06-25T23:07:55.974Z,12.58
2018-06-25T23:10:24.169Z,9.95
2018-06-25T23:12:52.353Z,14.53
2018-06-25T23:15:20.518Z,11.70
2018-06-25T23:17:48.715Z,11.57
2018-06-25T23:20:16.898Z,11.45
2018-06-25T23:22:45.081Z,12.50
2018-06-25T23:25:13.272Z,14.85
2018-06-25T23:27:41.578Z,11.73
2018-06-25T23:30:09.758Z,11.88
2018-06-25T23:32:37.711Z,11.57
2018-06-25T23:35:05.890Z,9.78
2018-06-25T23:37:34.070Z,13.25
2018-06-25T23:40:02.246Z,10.10
2018-06-25T23:42:30.423Z,9.43
2018-06-25T23:44:58.590Z,9.83
2018-06-25T23:47:26.761Z,12.00
2018-06-25T23:49:54.926Z,10.30
2018-06-25T23:52:23.127Z,14.73
2018-06-25T23:54:51.294Z,10.98
2018-06-25T23:57:19.493Z,11.93
2018-06-25T23:59:47.645Z,9.70
